KNEW/NEW METAR and TAF weather

Enter ICAO airport designator
Station Type Date Time Source
KNEW METAR 2019/06/17 04:53 UTC NOAA

KNEW 170453Z 06013KT 8SM SCT032 27/22 A3000 RMK AO2 SLP151 T02670217


Station Type Date Time Source
KNEW Decoded METAR 2019/06/17 04:53 UTC NOAA

NEW ORLEANS LAKEFRONT AIRPORT , LA, United States (KNEW) 30-03N 90-02W 3M
Jun 17, 2019 - 12:53 AM EDT / 2019.06.17 0453 UTC
Wind: from the ENE (060 degrees) at 15 MPH (13 KT):0
Visibility: 8 mile(s):0
Sky conditions: partly cloudy
Temperature: 80.1 F (26.7 C)
Dew Point: 71.1 F (21.7 C)
Relative Humidity: 74%
Pressure (altimeter): 30 in. Hg (1015 hPa)
ob: KNEW 170453Z 06013KT 8SM SCT032 27/22 A3000 RMK AO2 SLP151 T02670217
cycle: 5

Station Type Date Time Source
KNEW TAF 2019/06/16 18:40 UTC NOAA

TAF KNEW 161738Z 1618/1718 03007KT P6SM VCTS SCT050CB
FM162000 15008KT P6SM VCTS BKN100CB
FM162100 15005KT P6SM BKN110
FM171700 VRB04KT P6SM BKN030

Example: see airport list